Time;durP1;ratioP1;P1;durP2;ratioP2;P2;SDS_P1;SDS_P2;PMS_P1;PMS_P2;Temp;Humidity;BMP_temperature;BMP_pressure;BME280_temperature;BME280_humidity;BME280_pressure;Samples;Min_cycle;Max_cycle;Signal;HPM_P1;HPM_P2
2021/04/16 00:00:53;;;;;;;4.77;4.37;;;3.00;99.90;;;;;;4999746;28;20186;-78
2021/04/16 00:03:19;;;;;;;6.40;4.27;;;3.00;99.90;;;;;;4998589;28;20200;-78
2021/04/16 00:05:45;;;;;;;6.63;4.40;;;3.00;99.90;;;;;;4998816;28;20208;-78
2021/04/16 00:08:14;;;;;;;4.93;4.50;;;3.00;99.90;;;;;;4999440;28;20192;-78
2021/04/16 00:10:55;;;;;;;6.10;4.40;;;3.00;99.90;;;;;;4999694;28;20177;-78
2021/04/16 00:13:23;;;;;;;4.70;4.30;;;3.00;99.90;;;;;;4996121;28;20285;-78
2021/04/16 00:15:49;;;;;;;4.60;4.20;;;3.00;99.90;;;;;;4999085;28;20226;-78
2021/04/16 00:18:18;;;;;;;5.07;4.57;;;2.90;99.90;;;;;;4998880;28;20177;-78
2021/04/16 00:20:44;;;;;;;5.50;4.60;;;2.90;99.90;;;;;;4999215;28;20186;-78
2021/04/16 00:23:10;;;;;;;4.60;4.20;;;2.90;99.90;;;;;;4992088;28;20212;-78
2021/04/16 00:25:37;;;;;;;4.63;4.23;;;2.80;99.90;;;;;;4996585;28;20216;-78
2021/04/16 00:28:05;;;;;;;5.43;4.93;;;2.70;99.90;;;;;;5001225;28;20223;-78
2021/04/16 00:30:37;;;;;;;5.13;4.40;;;2.70;99.90;;;;;;5002345;28;20183;-79
2021/04/16 00:33:03;;;;;;;4.73;4.23;;;2.70;99.90;;;;;;5001389;28;20662;-78
2021/04/16 00:35:29;;;;;;;4.70;4.30;;;2.70;99.90;;;;;;5002253;28;20184;-78
2021/04/16 00:37:55;;;;;;;4.50;4.10;;;2.70;99.90;;;;;;5002392;28;20224;-78
2021/04/16 00:40:28;;;;;;;4.20;3.80;;;2.70;99.90;;;;;;5001158;28;20244;-78
2021/04/16 00:42:58;;;;;;;4.90;4.40;;;2.70;99.90;;;;;;5001940;28;20166;-78
2021/04/16 00:45:27;;;;;;;4.37;3.97;;;2.70;99.90;;;;;;5001153;28;20300;-78
2021/04/16 00:47:56;;;;;;;4.70;4.17;;;2.80;99.90;;;;;;5002729;28;20266;-78
2021/04/16 00:50:28;;;;;;;4.53;4.00;;;2.70;99.90;;;;;;4996527;28;20597;-78
2021/04/16 00:52:54;;;;;;;4.27;3.87;;;2.70;99.90;;;;;;5000805;28;20186;-77
2021/04/16 00:55:22;;;;;;;4.00;3.67;;;2.70;99.90;;;;;;5002281;28;20202;-78
2021/04/16 00:57:48;;;;;;;4.50;4.20;;;2.60;99.90;;;;;;5000835;28;20197;-78
2021/04/16 01:00:16;;;;;;;4.10;3.80;;;2.50;99.90;;;;;;5001620;28;20541;-78
2021/04/16 01:02:42;;;;;;;4.40;3.90;;;2.60;99.90;;;;;;5001768;28;20184;-78
2021/04/16 01:05:08;;;;;;;4.20;3.77;;;2.50;99.90;;;;;;5000056;28;20738;-78
2021/04/16 01:07:35;;;;;;;4.70;3.87;;;2.60;99.90;;;;;;5001535;28;20282;-78
2021/04/16 01:10:02;;;;;;;4.30;3.90;;;2.60;99.90;;;;;;5001001;28;20272;-79
2021/04/16 01:12:28;;;;;;;3.97;3.57;;;2.60;99.90;;;;;;5000149;28;20235;-78
2021/04/16 01:15:08;;;;;;;4.07;3.67;;;2.60;99.90;;;;;;5001694;28;20250;-78
2021/04/16 01:17:34;;;;;;;4.07;3.73;;;2.50;99.90;;;;;;5001432;28;20200;-78
2021/04/16 01:20:16;;;;;;;4.00;3.60;;;2.50;99.90;;;;;;5001042;28;20167;-78
2021/04/16 01:23:12;;;;;;;5.80;4.13;;;2.40;99.90;;;;;;4993802;28;20168;-78
2021/04/16 01:25:40;;;;;;;4.10;3.70;;;2.30;99.90;;;;;;4976494;28;20215;-78
2021/04/16 01:28:06;;;;;;;4.50;3.70;;;2.30;99.90;;;;;;5000908;28;20228;-78
2021/04/16 01:30:32;;;;;;;4.80;3.13;;;2.40;99.90;;;;;;5001098;28;20176;-78
2021/04/16 01:32:59;;;;;;;4.20;3.80;;;2.30;99.90;;;;;;5001130;28;20251;-78
2021/04/16 01:35:34;;;;;;;3.70;3.23;;;2.50;99.90;;;;;;5000042;28;20636;-78
2021/04/16 01:38:04;;;;;;;7.17;3.90;;;2.50;99.90;;;;;;5000787;28;20189;-78
2021/04/16 01:40:30;;;;;;;3.90;3.50;;;2.40;99.90;;;;;;5001131;28;20200;-78
2021/04/16 01:42:55;;;;;;;3.47;3.17;;;2.40;99.90;;;;;;5000775;28;20164;-78
2021/04/16 01:45:26;;;;;;;3.90;3.57;;;2.40;99.90;;;;;;5001905;28;20207;-78
2021/04/16 01:48:00;;;;;;;3.37;3.10;;;2.40;99.90;;;;;;5000483;28;20192;-78
2021/04/16 01:50:29;;;;;;;3.20;2.90;;;2.40;99.90;;;;;;5000012;28;20180;-78
2021/04/16 01:52:58;;;;;;;6.00;3.23;;;2.30;99.90;;;;;;5001267;28;20176;-78
2021/04/16 01:55:24;;;;;;;3.33;3.03;;;2.30;99.90;;;;;;5000210;28;20173;-78
2021/04/16 01:57:51;;;;;;;5.47;3.40;;;2.20;99.90;;;;;;5001714;28;20200;-78
2021/04/16 02:00:23;;;;;;;3.60;3.30;;;2.20;99.90;;;;;;5000572;28;20214;-78
2021/04/16 02:02:49;;;;;;;3.70;3.40;;;2.10;99.90;;;;;;5001181;28;20169;-78
2021/04/16 02:05:15;;;;;;;3.50;3.20;;;2.10;99.90;;;;;;5001305;28;20641;-78
2021/04/16 02:07:41;;;;;;;3.40;2.90;;;2.10;99.90;;;;;;5001146;28;20276;-78
2021/04/16 02:10:10;;;;;;;4.30;3.17;;;2.10;99.90;;;;;;4988317;28;20217;-78
2021/04/16 02:12:35;;;;;;;3.50;3.20;;;2.10;99.90;;;;;;4978787;28;20174;-78
2021/04/16 02:15:03;;;;;;;4.17;3.60;;;2.20;99.90;;;;;;4998551;28;20725;-79
2021/04/16 02:17:29;;;;;;;5.50;3.40;;;2.10;99.90;;;;;;4997091;28;20197;-78
2021/04/16 02:19:58;;;;;;;3.93;3.63;;;2.00;99.90;;;;;;5001171;28;20184;-78
2021/04/16 02:22:26;;;;;;;3.47;3.27;;;1.90;99.90;;;;;;4996013;28;20178;-78
2021/04/16 02:24:53;;;;;;;3.60;3.30;;;1.80;99.90;;;;;;4997165;28;20205;-78
2021/04/16 02:27:21;;;;;;;4.17;3.40;;;1.90;99.90;;;;;;4999854;28;20205;-78
2021/04/16 02:29:48;;;;;;;3.60;3.30;;;1.90;99.90;;;;;;5000274;28;20173;-78
2021/04/16 02:32:14;;;;;;;4.27;3.73;;;2.00;99.90;;;;;;5000732;28;20204;-78
2021/04/16 02:34:40;;;;;;;4.07;3.77;;;2.10;99.90;;;;;;4999529;28;20183;-77
2021/04/16 02:37:11;;;;;;;4.17;3.77;;;2.10;99.90;;;;;;4996906;28;20211;-78
2021/04/16 02:39:37;;;;;;;4.03;3.73;;;2.10;99.90;;;;;;4999701;28;20184;-78
2021/04/16 02:42:04;;;;;;;3.80;3.20;;;2.10;99.90;;;;;;4989228;28;20183;-78
2021/04/16 02:44:30;;;;;;;3.70;3.40;;;2.00;99.90;;;;;;4998717;28;20203;-80
2021/04/16 02:46:56;;;;;;;4.07;3.63;;;2.00;99.90;;;;;;4997781;28;20208;-78
2021/04/16 02:49:23;;;;;;;3.73;3.43;;;2.00;99.90;;;;;;4997396;28;20200;-78
2021/04/16 02:51:50;;;;;;;5.07;3.60;;;2.10;99.90;;;;;;4998385;28;20176;-78
2021/04/16 02:54:16;;;;;;;4.27;3.60;;;2.00;99.90;;;;;;5000262;28;20238;-78
2021/04/16 02:56:42;;;;;;;4.80;3.90;;;2.00;99.90;;;;;;5001729;28;20683;-78
2021/04/16 02:59:08;;;;;;;3.87;3.57;;;2.00;99.90;;;;;;5000837;28;20184;-78
2021/04/16 03:01:35;;;;;;;4.37;3.97;;;2.10;99.90;;;;;;4999664;28;20188;-78
2021/04/16 03:04:02;;;;;;;5.03;4.60;;;2.10;99.90;;;;;;5000303;28;20212;-78
2021/04/16 03:06:28;;;;;;;4.47;4.17;;;2.10;99.90;;;;;;5000637;28;20221;-78
2021/04/16 03:08:56;;;;;;;6.60;4.70;;;2.10;99.90;;;;;;4998826;28;20209;-78
2021/04/16 03:11:24;;;;;;;4.80;4.40;;;2.00;99.90;;;;;;5000094;28;20164;-78
2021/04/16 03:13:49;;;;;;;7.27;4.67;;;1.90;99.90;;;;;;5000150;28;20194;-78
2021/04/16 03:16:17;;;;;;;5.30;4.77;;;1.90;99.90;;;;;;5000379;28;20684;-78
2021/04/16 03:18:43;;;;;;;5.20;4.70;;;2.00;99.90;;;;;;5000481;28;20175;-78
2021/04/16 03:21:09;;;;;;;5.27;4.77;;;2.00;99.90;;;;;;5000297;28;20176;-78
2021/04/16 03:23:34;;;;;;;5.90;4.60;;;2.00;99.90;;;;;;4991165;28;20200;-78
2021/04/16 03:26:00;;;;;;;5.97;5.47;;;2.00;99.90;;;;;;4998718;28;20235;-78
2021/04/16 03:28:26;;;;;;;5.33;4.93;;;1.90;99.90;;;;;;5000086;28;20176;-78
2021/04/16 03:30:52;;;;;;;5.87;5.37;;;1.90;99.90;;;;;;5000332;28;20168;-78
2021/04/16 03:33:18;;;;;;;5.90;4.80;;;1.90;99.90;;;;;;5000344;28;20176;-78
2021/04/16 03:35:44;;;;;;;5.67;5.17;;;1.80;99.90;;;;;;4999472;28;20182;-78
2021/04/16 03:38:11;;;;;;;7.40;4.77;;;1.80;99.90;;;;;;5000202;28;20200;-78
2021/04/16 03:40:37;;;;;;;4.60;4.20;;;1.80;99.90;;;;;;5000096;28;20182;-78
2021/04/16 03:43:04;;;;;;;6.80;4.67;;;1.90;99.90;;;;;;5000395;28;20180;-78
2021/04/16 03:45:30;;;;;;;6.30;5.07;;;1.90;99.90;;;;;;5000476;28;20169;-78
2021/04/16 03:47:56;;;;;;;5.57;5.00;;;1.80;99.90;;;;;;5000183;28;20196;-78
2021/04/16 03:50:30;;;;;;;6.07;4.70;;;1.70;99.90;;;;;;5000502;28;20173;-78
2021/04/16 03:52:56;;;;;;;4.80;4.33;;;1.70;99.90;;;;;;4999925;28;20192;-78
2021/04/16 03:55:25;;;;;;;4.87;4.47;;;1.70;99.90;;;;;;5000521;28;20175;-78
2021/04/16 03:57:51;;;;;;;4.60;4.20;;;1.70;99.90;;;;;;5001419;28;20273;-78
2021/04/16 04:00:21;;;;;;;5.30;4.90;;;1.80;99.90;;;;;;5000133;28;20195;-78
2021/04/16 04:02:47;;;;;;;6.23;4.90;;;1.80;99.90;;;;;;4973906;28;20255;-78
2021/04/16 04:05:14;;;;;;;4.80;4.40;;;1.80;99.90;;;;;;4985694;28;20226;-78
2021/04/16 04:07:40;;;;;;;5.80;4.60;;;1.70;99.90;;;;;;4997786;28;20202;-78
2021/04/16 04:10:08;;;;;;;5.33;4.77;;;1.70;99.90;;;;;;5003098;28;20172;-78
2021/04/16 04:12:33;;;;;;;4.60;4.30;;;1.70;99.90;;;;;;5002949;28;20176;-78
2021/04/16 04:14:59;;;;;;;5.17;4.27;;;1.60;99.90;;;;;;5002694;28;20537;-78
2021/04/16 04:17:34;;;;;;;5.07;4.20;;;1.70;99.90;;;;;;5002796;28;20609;-78
2021/04/16 04:20:00;;;;;;;4.40;4.00;;;1.70;99.90;;;;;;5001972;28;20250;-78
2021/04/16 04:22:27;;;;;;;3.87;3.57;;;1.60;99.90;;;;;;4995302;28;20188;-78
2021/04/16 04:24:53;;;;;;;4.67;4.27;;;1.60;99.90;;;;;;4999692;28;20242;-78
2021/04/16 04:27:20;;;;;;;5.13;4.03;;;1.60;99.90;;;;;;5002915;28;20576;-78
2021/04/16 04:29:46;;;;;;;4.57;4.17;;;1.60;99.90;;;;;;5003477;28;20188;-78
2021/04/16 04:32:13;;;;;;;4.97;3.83;;;1.70;99.90;;;;;;5003206;28;20177;-78
2021/04/16 04:34:40;;;;;;;5.17;4.23;;;1.60;99.90;;;;;;5002120;28;20613;-78
2021/04/16 04:37:08;;;;;;;3.90;3.60;;;1.60;99.90;;;;;;5001154;28;20210;-78
2021/04/16 04:39:36;;;;;;;5.43;3.80;;;1.60;99.90;;;;;;5002901;28;20188;-78
2021/04/16 04:42:04;;;;;;;5.17;4.13;;;1.50;99.90;;;;;;4990316;28;20232;-79
2021/04/16 04:44:31;;;;;;;5.17;4.67;;;1.50;99.90;;;;;;4978999;28;20214;-78
2021/04/16 04:46:57;;;;;;;5.30;4.80;;;1.60;99.90;;;;;;5002316;28;20211;-78
2021/04/16 04:49:23;;;;;;;5.70;5.17;;;1.60;99.90;;;;;;4997236;28;20223;-78
2021/04/16 04:52:18;;;;;;;4.83;4.33;;;1.60;99.90;;;;;;5002229;28;20185;-79
2021/04/16 04:54:46;;;;;;;4.63;4.23;;;1.60;99.90;;;;;;5002571;28;20178;-78
2021/04/16 04:57:12;;;;;;;5.50;4.53;;;1.60;99.90;;;;;;5002482;28;20691;-78
2021/04/16 04:59:39;;;;;;;6.00;4.60;;;1.60;99.90;;;;;;5003313;28;20210;-78
2021/04/16 05:02:04;;;;;;;5.07;4.53;;;1.60;99.90;;;;;;4994042;28;20180;-78
2021/04/16 05:04:30;;;;;;;4.80;4.40;;;1.60;99.90;;;;;;4965392;28;20234;-78
2021/04/16 05:06:56;;;;;;;5.53;5.03;;;1.70;99.90;;;;;;4973207;28;20255;-78
2021/04/16 05:09:22;;;;;;;6.00;5.47;;;1.50;99.90;;;;;;4983101;28;20244;-78
2021/04/16 05:11:48;;;;;;;6.10;5.50;;;1.50;99.90;;;;;;5000159;28;20176;-78
2021/04/16 05:14:14;;;;;;;5.83;4.87;;;1.60;99.90;;;;;;4991406;28;20601;-78
2021/04/16 05:16:39;;;;;;;6.73;5.37;;;1.60;99.90;;;;;;5000009;28;20199;-78
2021/04/16 05:19:05;;;;;;;5.20;4.80;;;1.50;99.90;;;;;;4992293;28;20176;-79
2021/04/16 05:21:33;;;;;;;5.43;4.93;;;1.50;99.90;;;;;;4990589;28;20207;-79
2021/04/16 05:23:59;;;;;;;5.47;4.97;;;1.50;99.90;;;;;;4994245;28;20193;-78
2021/04/16 05:26:25;;;;;;;4.97;4.57;;;1.50;99.90;;;;;;5001436;28;20218;-78
2021/04/16 05:28:50;;;;;;;6.27;5.47;;;1.50;99.90;;;;;;4998890;28;20176;-78
2021/04/16 05:31:16;;;;;;;6.60;5.13;;;1.50;99.90;;;;;;4982679;28;20676;-78
2021/04/16 05:33:42;;;;;;;4.90;4.50;;;1.50;99.90;;;;;;4986458;28;20251;-77
2021/04/16 05:36:08;;;;;;;6.27;5.60;;;1.60;99.90;;;;;;4997284;28;20559;-78
2021/04/16 05:38:34;;;;;;;6.20;5.60;;;1.70;99.90;;;;;;4980078;28;20228;-78
2021/04/16 05:41:00;;;;;;;5.43;4.93;;;1.60;99.90;;;;;;5001060;28;20192;-78
2021/04/16 05:43:26;;;;;;;5.40;4.90;;;1.70;99.90;;;;;;5002084;28;20289;-78
2021/04/16 05:45:52;;;;;;;5.83;5.30;;;1.80;99.90;;;;;;5001585;28;20203;-78
2021/04/16 05:48:17;;;;;;;6.03;5.47;;;1.80;99.90;;;;;;4999798;28;20169;-78
2021/04/16 05:50:43;;;;;;;6.03;5.10;;;1.90;99.90;;;;;;4998667;28;20175;-78
2021/04/16 05:53:09;;;;;;;6.87;5.50;;;2.00;99.90;;;;;;4993547;28;20183;-77
2021/04/16 05:55:35;;;;;;;7.67;5.83;;;1.90;99.90;;;;;;4994116;28;20550;-78
2021/04/16 05:58:00;;;;;;;7.37;6.10;;;1.90;99.90;;;;;;4977335;28;20198;-78
2021/04/16 06:00:27;;;;;;;6.43;5.63;;;1.90;99.90;;;;;;4976063;28;20195;-78
2021/04/16 06:02:53;;;;;;;6.37;5.73;;;1.90;99.90;;;;;;4979071;28;20196;-77
2021/04/16 06:05:21;;;;;;;7.60;6.10;;;2.00;99.90;;;;;;4995594;28;20566;-76
2021/04/16 06:07:47;;;;;;;5.83;5.27;;;2.10;99.90;;;;;;4993376;28;20765;-78
2021/04/16 06:10:15;;;;;;;6.63;5.43;;;2.00;99.90;;;;;;4995062;28;20173;-78
2021/04/16 06:12:41;;;;;;;7.27;5.73;;;2.10;99.90;;;;;;4977419;28;20593;-78
2021/04/16 06:15:10;;;;;;;6.47;5.97;;;2.10;99.90;;;;;;4994499;28;20172;-78
2021/04/16 06:17:37;;;;;;;6.47;5.40;;;2.20;99.90;;;;;;4975333;28;20208;-78
2021/04/16 06:20:05;;;;;;;7.33;5.57;;;2.30;99.90;;;;;;4974711;28;20191;-78
2021/04/16 06:22:30;;;;;;;9.20;6.27;;;2.30;99.90;;;;;;4981391;28;20187;-78
2021/04/16 06:24:56;;;;;;;5.70;5.30;;;2.40;99.90;;;;;;4992840;28;20201;-78
2021/04/16 06:27:23;;;;;;;6.40;5.90;;;2.40;99.90;;;;;;4985157;28;20219;-78
2021/04/16 06:29:48;;;;;;;5.97;5.47;;;2.40;99.90;;;;;;4992987;28;20191;-78
2021/04/16 06:32:16;;;;;;;6.00;5.40;;;2.50;99.90;;;;;;4989764;28;20174;-78
2021/04/16 06:34:42;;;;;;;6.37;5.77;;;2.40;99.90;;;;;;4980031;28;20207;-78
2021/04/16 06:37:08;;;;;;;7.17;6.47;;;2.50;99.90;;;;;;4981570;28;20209;-78
2021/04/16 06:39:35;;;;;;;6.13;5.63;;;2.60;99.90;;;;;;4995886;28;20176;-78
2021/04/16 06:42:06;;;;;;;7.10;6.47;;;2.70;99.90;;;;;;4978862;28;20601;-78
2021/04/16 06:44:34;;;;;;;6.83;6.33;;;2.80;99.90;;;;;;4983940;28;20575;-78
2021/04/16 06:47:25;;;;;;;6.97;6.27;;;2.90;99.90;;;;;;4998210;28;20196;-78
2021/04/16 06:49:51;;;;;;;6.43;5.87;;;2.90;99.90;;;;;;5000500;28;20167;-78
2021/04/16 06:52:20;;;;;;;6.60;6.00;;;3.00;99.90;;;;;;4981143;28;20186;-78
2021/04/16 06:54:52;;;;;;;7.07;6.47;;;3.10;99.90;;;;;;4997987;28;20191;-78
2021/04/16 06:57:44;;;;;;;6.93;6.13;;;3.30;99.90;;;;;;4990645;28;20243;-78
2021/04/16 07:00:41;;;;;;;7.67;6.80;;;3.30;99.90;;;;;;4969787;28;20672;-78
2021/04/16 07:03:32;;;;;;;6.87;6.27;;;3.20;99.90;;;;;;4995056;28;20189;-78
2021/04/16 07:05:58;;;;;;;6.53;6.03;;;3.40;99.90;;;;;;4998626;28;20173;-78
2021/04/16 07:08:40;;;;;;;7.00;6.40;;;3.40;99.90;;;;;;4972450;28;20233;-78
2021/04/16 07:11:30;;;;;;;6.83;6.33;;;3.40;99.90;;;;;;4989474;28;20187;-79
2021/04/16 07:13:58;;;;;;;7.00;6.07;;;3.30;99.90;;;;;;4986694;28;20239;-78
2021/04/16 07:16:25;;;;;;;6.90;6.30;;;3.50;99.90;;;;;;4994471;28;20196;-78
2021/04/16 07:19:02;;;;;;;7.10;6.47;;;3.70;99.90;;;;;;4998584;28;20179;-78
2021/04/16 07:21:28;;;;;;;6.90;6.30;;;3.90;99.90;;;;;;4988402;28;20260;-78
2021/04/16 07:24:00;;;;;;;7.47;6.83;;;4.00;99.90;;;;;;4978148;28;20279;-78
2021/04/16 07:26:48;;;;;;;6.57;6.00;;;3.80;99.90;;;;;;4980329;28;20209;-78
2021/04/16 07:29:43;;;;;;;6.23;5.73;;;3.80;99.90;;;;;;4979561;28;20221;-78
2021/04/16 07:32:37;;;;;;;6.53;6.03;;;4.00;99.90;;;;;;4986988;28;20658;-78
2021/04/16 07:35:28;;;;;;;6.43;5.97;;;4.00;99.90;;;;;;5004868;28;20176;-78
2021/04/16 07:38:05;;;;;;;6.47;5.97;;;4.20;99.90;;;;;;4994319;28;20200;-78
2021/04/16 07:40:40;;;;;;;6.97;6.47;;;4.20;99.90;;;;;;4995794;28;20181;-79
2021/04/16 07:43:06;;;;;;;6.77;6.17;;;4.20;99.90;;;;;;5004466;28;20268;-78
2021/04/16 07:45:40;;;;;;;7.27;6.67;;;4.10;99.90;;;;;;5003622;28;20182;-78
2021/04/16 07:48:20;;;;;;;7.27;6.20;;;4.10;99.90;;;;;;5004889;28;20191;-78
2021/04/16 07:50:50;;;;;;;6.87;6.37;;;4.30;99.90;;;;;;5004153;28;20201;-78
2021/04/16 07:53:37;;;;;;;7.00;6.30;;;4.30;99.90;;;;;;5003581;28;20178;-78
2021/04/16 07:56:11;;;;;;;6.73;6.23;;;4.40;99.90;;;;;;4996529;28;20169;-78
2021/04/16 07:58:38;;;;;;;6.23;5.73;;;4.50;99.90;;;;;;4983450;28;20192;-78
2021/04/16 08:01:25;;;;;;;6.60;6.00;;;4.40;99.90;;;;;;4986582;28;20179;-78
2021/04/16 08:03:55;;;;;;;7.20;6.50;;;4.50;99.90;;;;;;4983956;28;20199;-78
2021/04/16 08:06:33;;;;;;;6.97;6.23;;;4.50;99.90;;;;;;4981309;28;20699;-78
2021/04/16 08:08:59;;;;;;;6.17;5.67;;;4.60;99.90;;;;;;4982318;28;20171;-78
2021/04/16 08:11:29;;;;;;;6.97;6.47;;;4.50;99.90;;;;;;5005130;28;20179;-78
2021/04/16 08:14:01;;;;;;;6.57;6.07;;;4.60;99.90;;;;;;4997562;28;20174;-77
2021/04/16 08:16:32;;;;;;;5.50;5.10;;;4.80;99.90;;;;;;4991674;28;20224;-79
2021/04/16 08:19:11;;;;;;;5.90;5.47;;;4.80;99.90;;;;;;5006594;28;20189;-78
2021/04/16 08:21:42;;;;;;;6.53;6.03;;;4.80;99.90;;;;;;4987246;28;20183;-78
2021/04/16 08:24:30;;;;;;;6.40;5.90;;;4.90;99.90;;;;;;4995955;28;20232;-78
2021/04/16 08:27:26;;;;;;;6.63;6.03;;;5.00;99.90;;;;;;5003797;28;20217;-79
2021/04/16 08:30:05;;;;;;;6.40;5.90;;;5.00;99.90;;;;;;5005961;28;20270;-78
2021/04/16 08:32:43;;;;;;;5.50;5.10;;;5.10;99.90;;;;;;4998631;28;20258;-78
2021/04/16 08:35:17;;;;;;;6.30;5.77;;;5.20;99.90;;;;;;5006076;28;20180;-78
2021/04/16 08:37:46;;;;;;;6.23;5.73;;;5.20;99.90;;;;;;4984770;28;20200;-78
2021/04/16 08:40:22;;;;;;;6.67;6.07;;;5.30;99.90;;;;;;4999060;28;20608;-78
2021/04/16 08:42:49;;;;;;;5.97;5.53;;;5.40;99.90;;;;;;5004099;28;20238;-78
2021/04/16 08:45:18;;;;;;;6.27;5.77;;;5.40;99.90;;;;;;5003948;28;20243;-78
2021/04/16 08:48:17;;;;;;;5.97;5.57;;;5.60;99.90;;;;;;5000229;28;20199;-79
2021/04/16 08:50:52;;;;;;;5.43;5.03;;;5.60;99.90;;;;;;4990744;28;20185;-79
2021/04/16 08:53:18;;;;;;;5.60;5.13;;;5.50;99.90;;;;;;4998258;28;20170;-78
2021/04/16 08:55:47;;;;;;;5.23;4.83;;;5.50;99.90;;;;;;4991727;28;20202;-79
2021/04/16 08:58:45;;;;;;;4.60;4.20;;;5.40;99.90;;;;;;4979313;28;20199;-78
2021/04/16 09:01:14;;;;;;;6.60;5.47;;;5.50;99.90;;;;;;4979166;28;20208;-78
2021/04/16 09:03:54;;;;;;;4.97;4.57;;;5.80;99.90;;;;;;4978554;28;20205;-77
2021/04/16 09:06:22;;;;;;;5.63;4.83;;;5.80;99.90;;;;;;4978648;28;20205;-77
2021/04/16 09:08:49;;;;;;;4.40;4.10;;;5.90;99.90;;;;;;4979609;28;20193;-78
2021/04/16 09:11:41;;;;;;;4.47;4.17;;;5.90;99.90;;;;;;4994151;28;20186;-78
2021/04/16 09:14:09;;;;;;;4.90;4.13;;;5.80;99.90;;;;;;4972815;28;20693;-78
2021/04/16 09:16:52;;;;;;;4.57;4.17;;;5.70;99.90;;;;;;4996943;28;20265;-78
2021/04/16 09:19:26;;;;;;;5.90;4.60;;;5.80;99.90;;;;;;5005236;28;20188;-78
2021/04/16 09:22:44;;;;;;;4.20;3.90;;;6.00;99.90;;;;;;4999512;28;20182;-78
2021/04/16 09:25:32;;;;;;;4.03;3.67;;;6.20;99.90;;;;;;4995268;28;20210;-78
2021/04/16 09:28:22;;;;;;;4.40;4.10;;;6.20;99.90;;;;;;4977716;28;20703;-78
2021/04/16 09:30:49;;;;;;;3.80;3.50;;;6.40;99.90;;;;;;4986553;28;20191;-78
2021/04/16 09:33:25;;;;;;;3.47;3.23;;;6.70;99.90;;;;;;4995840;28;20179;-78
2021/04/16 09:36:02;;;;;;;4.17;3.77;;;6.60;99.90;;;;;;4997129;28;20183;-78
2021/04/16 09:38:32;;;;;;;4.53;4.13;;;6.40;99.90;;;;;;4997643;28;20214;-78
2021/04/16 09:41:32;;;;;;;4.77;3.70;;;6.60;99.90;;;;;;4997311;28;20183;-78
2021/04/16 09:44:00;;;;;;;3.93;3.53;;;6.70;99.90;;;;;;4998187;28;20192;-78
2021/04/16 09:46:35;;;;;;;3.50;3.30;;;6.70;99.90;;;;;;4997207;28;20196;-78
2021/04/16 09:49:03;;;;;;;3.30;3.10;;;6.80;99.90;;;;;;4983600;28;20742;-78
2021/04/16 09:51:46;;;;;;;3.53;3.23;;;6.90;99.90;;;;;;4975850;28;20188;-78
2021/04/16 09:54:12;;;;;;;3.37;3.07;;;7.00;99.90;;;;;;4979380;28;20176;-78
2021/04/16 09:56:59;;;;;;;3.13;2.93;;;7.00;99.90;;;;;;4985026;28;20203;-78
2021/04/16 09:59:34;;;;;;;3.80;3.00;;;7.00;99.90;;;;;;4959819;28;20271;-78
2021/04/16 10:02:11;;;;;;;3.10;2.80;;;7.00;99.90;;;;;;4996839;28;20214;-78
2021/04/16 10:04:53;;;;;;;2.90;2.70;;;7.10;99.90;;;;;;4996113;28;20187;-78
2021/04/16 10:07:31;;;;;;;3.33;3.03;;;7.20;99.90;;;;;;4996059;28;20218;-78
2021/04/16 10:10:18;;;;;;;3.10;2.90;;;7.30;99.90;;;;;;4986606;28;20196;-78
2021/04/16 10:12:44;;;;;;;3.00;2.80;;;7.40;99.90;;;;;;4985113;28;20169;-78
2021/04/16 10:15:21;;;;;;;3.27;3.07;;;7.50;99.90;;;;;;4979156;28;20187;-78
2021/04/16 10:17:58;;;;;;;3.00;2.70;;;7.60;99.90;;;;;;4996892;28;20211;-78
2021/04/16 10:20:26;;;;;;;3.30;3.00;;;7.70;99.90;;;;;;4996238;28;20179;-78
2021/04/16 10:23:38;;;;;;;3.10;2.90;;;7.60;99.90;;;;;;4988578;28;20193;-78
2021/04/16 12:40:09;;;;;;;2.90;2.70;;;8.70;96.20;;;;;;4983841;28;20189;-81
2021/04/16 12:42:35;;;;;;;2.80;2.60;;;8.90;96.50;;;;;;4991878;28;20178;-80
2021/04/16 12:45:01;;;;;;;3.20;2.50;;;9.10;96.80;;;;;;4988433;28;20591;-81
2021/04/16 12:47:30;;;;;;;2.67;2.47;;;9.30;96.10;;;;;;4993173;28;20294;-81
2021/04/16 12:49:57;;;;;;;6.17;2.67;;;9.40;96.60;;;;;;4984340;28;20190;-80
2021/04/16 12:52:26;;;;;;;2.77;2.57;;;9.50;96.10;;;;;;4991693;28;20182;-80
2021/04/16 12:54:52;;;;;;;2.50;2.30;;;9.40;95.00;;;;;;4976158;28;20179;-80
2021/04/16 12:57:43;;;;;;;4.03;2.70;;;9.30;95.60;;;;;;4989920;28;20217;-81
2021/04/16 13:00:13;;;;;;;2.90;2.70;;;9.30;96.60;;;;;;4989914;28;20190;-80
2021/04/16 13:02:39;;;;;;;4.00;2.90;;;9.10;96.70;;;;;;4987079;28;20196;-80
2021/04/16 13:05:10;;;;;;;2.70;2.50;;;9.00;96.50;;;;;;4981125;28;20198;-80
2021/04/16 13:07:36;;;;;;;2.70;2.50;;;9.10;96.90;;;;;;4982692;28;20207;-80
2021/04/16 13:10:05;;;;;;;3.43;3.13;;;9.10;97.00;;;;;;4988690;28;20305;-81
2021/04/16 13:12:30;;;;;;;3.17;2.87;;;9.00;97.20;;;;;;4982417;28;20184;-81
2021/04/16 13:14:56;;;;;;;3.10;2.90;;;8.90;97.10;;;;;;4990817;28;20199;-80
2021/04/16 13:17:26;;;;;;;2.80;2.60;;;8.60;97.40;;;;;;4979775;28;20214;-80
2021/04/16 13:19:55;;;;;;;3.67;3.00;;;8.70;97.80;;;;;;4981322;28;20971;-81
2021/04/16 13:22:21;;;;;;;3.30;2.70;;;8.80;97.20;;;;;;4989164;28;20177;-79
2021/04/16 13:24:49;;;;;;;7.30;5.60;;;8.60;97.10;;;;;;4978544;28;20196;-80
2021/04/16 13:27:23;;;;;;;4.73;3.23;;;8.80;98.20;;;;;;4979891;28;20212;-79
2021/04/16 13:29:52;;;;;;;2.97;2.67;;;8.90;96.50;;;;;;4979684;28;20176;-78
2021/04/16 13:32:23;;;;;;;3.23;3.00;;;8.90;96.60;;;;;;4975230;28;20206;-79
2021/04/16 13:34:52;;;;;;;3.20;3.00;;;8.60;97.10;;;;;;4982314;28;20182;-79
2021/04/16 13:37:19;;;;;;;4.10;3.13;;;8.70;98.70;;;;;;4986523;28;20724;-79
2021/04/16 13:39:46;;;;;;;3.47;3.20;;;8.90;97.20;;;;;;4996058;28;20185;-79
2021/04/16 13:42:12;;;;;;;3.27;3.07;;;9.00;97.20;;;;;;5007076;28;20248;-79
2021/04/16 13:44:38;;;;;;;3.03;2.83;;;9.10;97.10;;;;;;4993825;28;20197;-79
2021/04/16 13:47:08;;;;;;;3.10;2.80;;;9.10;97.10;;;;;;4977158;28;20211;-78
2021/04/16 13:49:40;;;;;;;4.70;3.37;;;8.80;96.60;;;;;;4977457;28;20173;-79
2021/04/16 13:52:07;;;;;;;4.70;2.60;;;8.50;96.90;;;;;;4990102;28;20204;-79
2021/04/16 13:54:35;;;;;;;3.20;3.00;;;8.40;96.60;;;;;;4985109;28;20650;-80
2021/04/16 13:57:02;;;;;;;3.17;2.80;;;8.30;96.30;;;;;;4988445;28;20208;-81
2021/04/16 13:59:31;;;;;;;3.07;2.87;;;8.30;96.50;;;;;;4978768;28;20198;-81
2021/04/16 14:01:58;;;;;;;3.60;2.97;;;8.50;96.60;;;;;;4980680;28;20379;-80
2021/04/16 14:04:36;;;;;;;3.57;3.23;;;8.50;95.60;;;;;;4989110;28;20202;-81
2021/04/16 14:07:14;;;;;;;3.30;3.00;;;8.60;96.10;;;;;;4978163;28;20208;-81
2021/04/16 14:09:41;;;;;;;3.93;3.53;;;8.70;96.00;;;;;;4987789;28;20566;-80
2021/04/16 14:12:09;;;;;;;3.30;2.80;;;8.80;96.00;;;;;;4982120;28;20187;-80
2021/04/16 14:14:35;;;;;;;4.90;2.97;;;8.70;95.70;;;;;;4983570;28;20185;-80
2021/04/16 14:17:36;;;;;;;6.30;3.40;;;8.70;96.00;;;;;;4977492;28;20233;-80
2021/04/16 14:20:11;;;;;;;3.03;2.83;;;8.60;96.70;;;;;;4976299;28;20670;-80
2021/04/16 14:22:43;;;;;;;3.30;3.00;;;8.80;97.50;;;;;;4988822;28;20182;-80
2021/04/16 14:25:31;;;;;;;2.97;2.70;;;8.90;96.90;;;;;;4984700;28;20215;-80
2021/04/16 14:27:57;;;;;;;3.93;3.13;;;8.90;95.60;;;;;;4994030;28;20217;-80
2021/04/16 14:30:29;;;;;;;5.53;3.20;;;8.90;96.00;;;;;;4996965;28;20193;-80
2021/04/16 14:32:56;;;;;;;6.37;5.77;;;8.90;97.40;;;;;;4998111;28;20185;-81
2021/04/16 14:35:25;;;;;;;3.40;3.10;;;8.90;96.40;;;;;;5005366;28;20614;-81
2021/04/16 14:37:53;;;;;;;3.73;3.27;;;8.80;96.40;;;;;;5005488;28;20204;-81
2021/04/16 14:40:19;;;;;;;9.80;3.40;;;8.80;96.10;;;;;;4992920;28;20185;-79
2021/04/16 14:42:45;;;;;;;3.57;3.27;;;8.90;97.60;;;;;;5002302;28;20189;-81
2021/04/16 14:45:15;;;;;;;4.40;3.03;;;8.90;95.90;;;;;;5003036;28;20870;-81
2021/04/16 14:47:40;;;;;;;2.80;2.60;;;8.90;96.50;;;;;;5004551;28;20193;-81
2021/04/16 14:50:09;;;;;;;3.07;2.80;;;9.00;95.60;;;;;;5003927;28;20178;-81
2021/04/16 14:52:35;;;;;;;2.87;2.67;;;9.30;95.40;;;;;;5004266;28;20186;-81
2021/04/16 14:55:04;;;;;;;3.22;2.70;;;9.30;96.00;;;;;;5004953;28;20601;-80
2021/04/16 14:57:35;;;;;;;3.10;2.80;;;9.10;95.00;;;;;;5003312;28;20232;-80
2021/04/16 15:00:03;;;;;;;2.90;2.70;;;8.80;95.20;;;;;;5001945;28;20197;-82
2021/04/16 15:02:29;;;;;;;5.07;3.03;;;8.80;95.40;;;;;;5004149;28;20184;-81
2021/04/16 15:04:55;;;;;;;3.10;2.90;;;8.60;95.60;;;;;;5003844;28;20273;-80
2021/04/16 15:07:26;;;;;;;7.70;2.90;;;8.50;95.90;;;;;;5003795;28;20205;-81
2021/04/16 15:09:56;;;;;;;3.13;2.83;;;8.70;96.70;;;;;;5004222;28;20169;-80
2021/04/16 15:12:24;;;;;;;2.73;2.53;;;8.80;95.30;;;;;;5003395;28;20172;-80
2021/04/16 15:14:52;;;;;;;5.10;2.73;;;8.90;95.10;;;;;;5001928;28;20168;-81
2021/04/16 15:17:19;;;;;;;3.10;2.80;;;9.20;97.00;;;;;;4999334;28;20566;-80
2021/04/16 15:19:51;;;;;;;3.20;2.77;;;9.20;94.80;;;;;;4971249;28;20186;-80
2021/04/16 15:22:23;;;;;;;2.97;2.77;;;9.30;96.10;;;;;;4994726;28;20182;-80
2021/04/16 15:24:52;;;;;;;6.17;2.70;;;9.50;96.00;;;;;;4994045;28;20197;-79
2021/04/16 15:27:31;;;;;;;2.73;2.53;;;9.60;95.60;;;;;;4995756;28;20693;-79
2021/04/16 15:29:59;;;;;;;2.70;2.50;;;9.50;95.50;;;;;;4989273;28;20183;-80